Terminal Aerodrome Forecast
Issued by NWS

Home | Current Version | Previous Version | Text Only | Print | Product List | Glossary On
Versions: 1 2 3 4 5 6 7 8 9 10 11 12 13 14 15 16 17 18 19 20 21
910
FTUS46 KMTR 282108 AAA
TAFSFO
TAF AMD
KSFO 282108Z 2821/2924 29016G21KT P6SM FEW010 FEW200
     FM290400 29011KT P6SM FEW010 FEW200
     FM290900 28008KT P6SM SCT009
     FM291200 29006KT P6SM OVC008
     FM291600 34007KT P6SM FEW010
     FM292100 30015KT P6SM FEW012=

USA.gov is the U.S. government's official web portal to all federal, state and local government web resources and services.